createdAt,value
2019-04-20T00:04:33.879Z,21.45
2019-04-20T00:09:38.701Z,22.15
2019-04-20T00:14:42.488Z,20.15
2019-04-20T00:19:54.207Z,21.15
2019-04-20T00:25:06.601Z,19.98
2019-04-20T00:30:32.492Z,19.07
2019-04-20T00:35:14.735Z,18.65
2019-04-20T00:40:19.579Z,23.22
2019-04-20T00:45:29.520Z,26.90
2019-04-20T00:50:44.447Z,23.15
2019-04-20T00:55:38.038Z,24.30
2019-04-20T01:01:07.283Z,26.60
2019-04-20T01:06:12.063Z,27.07
2019-04-20T01:10:58.232Z,28.60
2019-04-20T01:16:08.481Z,28.90
2019-04-20T01:21:14.045Z,32.03
2019-04-20T01:26:20.821Z,27.60
2019-04-20T01:31:33.647Z,32.67
2019-04-20T01:36:52.001Z,27.93
2019-04-20T01:41:39.308Z,24.18
2019-04-20T01:46:53.522Z,27.98
2019-04-20T01:52:03.829Z,26.23
2019-04-20T01:57:24.859Z,25.32
2019-04-20T02:02:27.717Z,29.12
2019-04-20T02:07:38.979Z,28.32
2019-04-20T02:12:40.874Z,26.20
2019-04-20T02:17:59.724Z,27.80
2019-04-20T02:23:06.797Z,27.98
2019-04-20T02:28:14.623Z,25.37
2019-04-20T02:33:45.025Z,24.57
2019-04-20T02:54:19.021Z,29.52
2019-04-20T02:59:54.064Z,30.23
2019-04-20T03:04:06.994Z,30.90
2019-04-20T03:09:32.445Z,29.63
2019-04-20T03:14:30.309Z,30.80
2019-04-20T03:19:38.569Z,32.78
2019-04-20T03:24:54.402Z,34.20
2019-04-20T03:29:56.624Z,34.80
2019-04-20T03:40:10.358Z,37.93
2019-04-20T03:45:07.585Z,39.35
2019-04-20T03:50:30.981Z,33.38
2019-04-20T03:55:40.841Z,33.78
2019-04-20T04:00:55.468Z,38.83
2019-04-20T04:06:08.363Z,38.85
2019-04-20T04:11:27.614Z,38.85
2019-04-20T04:16:18.169Z,41.25
2019-04-20T04:21:37.120Z,37.30
2019-04-20T04:26:49.954Z,37.10
2019-04-20T04:32:07.856Z,31.80
2019-04-20T04:37:10.646Z,34.40
2019-04-20T04:42:38.486Z,31.60
2019-04-20T04:47:08.035Z,27.73
2019-04-20T04:52:15.927Z,21.50
2019-04-20T04:57:18.252Z,22.20
2019-04-20T05:02:29.796Z,21.52
2019-04-20T05:07:47.597Z,18.85
2019-04-20T05:18:07.227Z,20.95
2019-04-20T05:23:13.023Z,18.82
2019-04-20T05:28:20.447Z,24.67
2019-04-20T05:33:27.053Z,22.73
2019-04-20T05:43:47.274Z,25.92
2019-04-20T05:48:56.167Z,30.12
2019-04-20T05:54:02.636Z,22.42
2019-04-20T05:59:09.785Z,26.85
2019-04-20T06:04:17.442Z,23.55
2019-04-20T06:09:42.248Z,24.00
2019-04-20T06:14:47.024Z,24.40
2019-04-20T06:20:02.331Z,23.00
2019-04-20T06:25:33.555Z,23.00
2019-04-20T06:30:13.685Z,24.20
2019-04-20T06:35:48.154Z,24.40
2019-04-20T06:41:00.859Z,20.00
2019-04-20T06:45:55.127Z,23.25
2019-04-20T06:50:46.541Z,22.85
2019-04-20T06:55:57.311Z,18.45
2019-04-20T07:01:06.570Z,15.32
2019-04-20T07:06:29.333Z,17.27
2019-04-20T07:11:18.907Z,12.93
2019-04-20T07:16:40.792Z,21.77
2019-04-20T07:27:04.675Z,19.35
2019-04-20T07:32:03.107Z,16.07
2019-04-20T07:37:43.294Z,14.03
2019-04-20T07:42:29.032Z,13.70
2019-04-20T07:47:38.057Z,16.62
2019-04-20T07:52:14.426Z,20.35
2019-04-20T07:57:35.036Z,13.65
2019-04-20T08:03:12.905Z,12.95
2019-04-20T08:08:10.608Z,24.25
2019-04-20T08:13:29.211Z,14.98
2019-04-20T08:23:32.077Z,28.23
2019-04-20T08:28:35.883Z,19.62
2019-04-20T08:34:07.676Z,12.53
2019-04-20T08:44:32.394Z,13.98
2019-04-20T08:49:22.144Z,9.40
2019-04-20T08:54:19.266Z,11.00
2019-04-20T08:59:09.376Z,11.85
2019-04-20T09:04:22.002Z,9.55
2019-04-20T09:09:58.169Z,12.40
2019-04-20T09:14:28.381Z,10.00
2019-04-20T09:19:45.437Z,11.15
2019-04-20T09:24:57.867Z,9.70
2019-04-20T09:30:05.869Z,10.72
2019-04-20T09:35:13.613Z,10.43
2019-04-20T09:40:21.327Z,9.93
2019-04-20T09:45:21.296Z,19.23
2019-04-20T09:50:35.986Z,10.88
2019-04-20T09:55:38.284Z,11.22
2019-04-20T10:00:56.837Z,11.30
2019-04-20T10:05:47.789Z,10.63
2019-04-20T10:10:52.927Z,13.65
2019-04-20T10:15:59.733Z,12.43
2019-04-20T10:21:05.561Z,11.48
2019-04-20T10:26:10.155Z,11.73
2019-04-20T10:31:14.861Z,10.63
2019-04-20T10:36:40.112Z,9.35
2019-04-20T10:41:52.596Z,7.22
2019-04-20T10:46:54.603Z,11.48
2019-04-20T10:51:59.908Z,11.48
2019-04-20T10:57:05.732Z,8.85
2019-04-20T11:02:11.972Z,9.50
2019-04-20T11:07:16.848Z,8.65
2019-04-20T11:12:22.143Z,10.20
2019-04-20T11:17:29.510Z,9.90
2019-04-20T11:22:34.754Z,8.40
2019-04-20T11:27:40.508Z,9.60
2019-04-20T11:32:46.303Z,9.63
2019-04-20T11:37:51.316Z,10.63
2019-04-20T11:42:57.441Z,8.88
2019-04-20T11:48:03.279Z,11.73
2019-04-20T11:53:09.174Z,9.23
2019-04-20T11:58:14.198Z,10.60
2019-04-20T12:03:28.276Z,9.43
2019-04-20T12:08:27.230Z,9.35
2019-04-20T12:13:31.924Z,8.70
2019-04-20T12:18:37.885Z,10.20
2019-04-20T12:23:42.473Z,9.25
2019-04-20T12:28:47.594Z,10.05
2019-04-20T12:33:52.606Z,7.85
2019-04-20T12:38:59.235Z,8.70
2019-04-20T12:44:03.982Z,9.10
2019-04-20T12:49:09.510Z,10.50
2019-04-20T12:54:14.588Z,8.75
2019-04-20T12:59:19.207Z,8.03
2019-04-20T13:04:24.716Z,9.48
2019-04-20T13:09:36.792Z,8.88
2019-04-20T13:15:00.549Z,8.18
2019-04-20T13:20:08.000Z,8.05
2019-04-20T13:30:32.249Z,12.68
2019-04-20T13:35:38.287Z,9.10
2019-04-20T13:40:43.966Z,8.45
2019-04-20T13:45:49.009Z,7.53
2019-04-20T13:50:54.016Z,10.00
2019-04-20T13:55:59.233Z,9.58
2019-04-20T14:01:06.179Z,9.88
2019-04-20T14:06:11.072Z,9.48
2019-04-20T14:11:15.764Z,8.75
2019-04-20T14:16:20.947Z,15.08
2019-04-20T14:21:26.075Z,12.07
2019-04-20T14:26:30.808Z,7.67
2019-04-20T14:31:35.366Z,7.72
2019-04-20T14:36:41.255Z,6.87
2019-04-20T14:41:46.563Z,8.70
2019-04-20T14:46:51.668Z,7.20
2019-04-20T14:51:58.157Z,10.55
2019-04-20T14:57:03.420Z,7.87
2019-04-20T15:02:10.535Z,7.30
2019-04-20T15:07:15.317Z,16.00
2019-04-20T15:12:21.275Z,10.63
2019-04-20T15:17:29.814Z,11.28
2019-04-20T15:22:36.223Z,12.63
2019-04-20T15:27:43.974Z,8.28
2019-04-20T15:32:47.412Z,10.72
2019-04-20T15:37:52.981Z,7.50
2019-04-20T15:43:06.465Z,15.15
2019-04-20T15:48:05.869Z,10.20
2019-04-20T15:53:11.386Z,10.80
2019-04-20T15:58:16.418Z,9.53
2019-04-20T16:03:32.923Z,11.53
2019-04-20T16:08:42.153Z,10.13
2019-04-20T16:13:50.379Z,7.97
2019-04-20T16:18:54.923Z,8.55
2019-04-20T16:24:04.496Z,7.83
2019-04-20T16:29:11.519Z,10.90
2019-04-20T16:34:17.137Z,7.53
2019-04-20T16:39:22.670Z,9.25
2019-04-20T16:44:27.465Z,10.28
2019-04-20T16:49:32.785Z,11.25
2019-04-20T16:54:37.669Z,11.05
2019-04-20T16:59:48.157Z,12.50
2019-04-20T17:04:51.511Z,13.00
2019-04-20T17:09:55.933Z,13.30
2019-04-20T17:15:01.409Z,13.38
2019-04-20T17:20:09.261Z,14.25
2019-04-20T17:25:16.305Z,14.45
2019-04-20T17:30:26.942Z,17.35
2019-04-20T17:35:41.509Z,13.65
2019-04-20T17:40:58.999Z,19.40
2019-04-20T17:45:55.966Z,21.82
2019-04-20T17:51:12.256Z,21.95
2019-04-20T17:56:01.650Z,22.58
2019-04-20T18:01:26.805Z,27.87
2019-04-20T18:06:44.095Z,26.27
2019-04-20T18:11:40.336Z,22.32
2019-04-20T18:17:03.479Z,22.52
2019-04-20T18:21:51.808Z,24.30
2019-04-20T18:27:14.092Z,20.43
2019-04-20T18:32:23.076Z,15.63
2019-04-20T18:37:28.823Z,14.03
2019-04-20T18:42:40.452Z,12.33
2019-04-20T18:47:59.992Z,13.08
2019-04-20T18:52:47.785Z,15.28
2019-04-20T18:57:53.083Z,14.87
2019-04-20T19:03:11.124Z,14.15
2019-04-20T19:08:09.561Z,15.68
2019-04-20T19:13:29.669Z,14.23
2019-04-20T19:18:45.257Z,13.90
2019-04-20T19:23:40.537Z,15.18
2019-04-20T19:28:48.104Z,14.78
2019-04-20T19:34:07.503Z,19.95
2019-04-20T19:39:10.986Z,14.47
2019-04-20T19:44:13.091Z,14.35
2019-04-20T19:49:19.630Z,18.02
2019-04-20T19:54:40.063Z,25.15
2019-04-20T19:59:38.713Z,25.60
2019-04-20T20:04:49.178Z,18.77
2019-04-20T20:09:56.568Z,19.98
2019-04-20T20:14:57.528Z,21.33
2019-04-20T20:20:25.138Z,24.30
2019-04-20T20:25:09.351Z,21.42
2019-04-20T20:30:23.044Z,19.40
2019-04-20T20:35:25.457Z,18.02
2019-04-20T20:40:32.807Z,21.15
2019-04-20T20:45:41.653Z,41.23
2019-04-20T20:50:58.756Z,51.05
2019-04-20T20:55:53.290Z,50.33
2019-04-20T21:01:03.413Z,44.35
2019-04-20T21:06:00.016Z,46.90
2019-04-20T21:11:11.546Z,45.03
2019-04-20T21:16:18.198Z,36.08
2019-04-20T21:21:32.442Z,37.98
2019-04-20T21:26:30.604Z,36.63
2019-04-20T21:31:31.427Z,38.95
2019-04-20T21:36:36.985Z,44.65
2019-04-20T21:41:51.233Z,45.48
2019-04-20T21:46:53.786Z,40.17
2019-04-20T21:52:01.287Z,40.92
2019-04-20T21:57:03.931Z,36.65
2019-04-20T22:02:17.210Z,43.28
2019-04-20T22:07:14.476Z,41.10
2019-04-20T22:12:20.240Z,39.13
2019-04-20T22:17:28.649Z,35.88
2019-04-20T22:22:49.416Z,40.67
2019-04-20T22:27:38.937Z,33.78
2019-04-20T22:32:46.984Z,28.32
2019-04-20T22:37:59.803Z,28.87
2019-04-20T22:43:04.329Z,27.42
2019-04-20T22:48:12.225Z,27.95
2019-04-20T22:53:33.795Z,28.15
2019-04-20T22:58:38.779Z,28.50
2019-04-20T23:03:31.163Z,25.82
2019-04-20T23:08:38.299Z,27.40
2019-04-20T23:13:46.579Z,26.10
2019-04-20T23:18:51.959Z,23.22
2019-04-20T23:24:02.687Z,22.52
2019-04-20T23:29:02.949Z,21.95
2019-04-20T23:34:15.309Z,24.12
2019-04-20T23:39:14.832Z,24.27
2019-04-20T23:44:40.047Z,27.25
2019-04-20T23:50:06.087Z,25.12
2019-04-20T23:54:59.102Z,24.65
2019-04-20T23:59:58.454Z,17.80
